Fairchance, PA (15436)

8:24 AM EST on November 26, 2014 (GMT -0500)
Nick's Weather | Change Station
CLOSE
Current Station
Personal Weather Station
Location: Uniontown, PA
Elevation: 1060 ft
Nearby Weather Stations
Active Advisory: Winter Weather Advisory

Elev 1060 ft 39.90 °N, 79.74 °W | Updated 7 seconds ago

Rain
Rain
34.2 °F
Feels Like 34 °F
N
0.0
Wind Variable Wind from SW
Gusts 0.0 mph

Today
High -- | Low -- °F
--% Chance of Precip.
Yesterday
High -- | Low -- °F
Precip. -- in
7:15 AM 4:56 PM
Waxing Crescent, 19% visible
Pressure 30.07 in
Visibility 6.0 miles
Clouds Overcast 3100 ft
Windchill 34 °F
Dew Point 29 °F
Humidity 81%
Rainfall 0.00 in
Snow Depth Not available.
UV 0 out of 12
Pollen .10 out of 12
Air Quality Not available.
Flu Activity Not available.
METAR KMGW 261253Z 06003KT 6SM UP OVC031 02/M03 A3004 RMK AO2 UPB33 SLP181 P0000 T00171028

More Conditions Fewer Conditions

Pressure 30.07 in
Visibility 6.0 miles
Clouds Overcast 3100 ft
Windchill 34 °F
Dew Point 29 °F
Humidity 81%
Rainfall 0.00 in
Snow Depth Not available.
UV 0 out of 12
Pollen .10 out of 12
Air Quality Not available.
Flu Activity Not available.
METAR KMGW 261253Z 06003KT 6SM UP OVC031 02/M03 A3004 RMK AO2 UPB33 SLP181 P0000 T00171028

More Conditions Fewer Conditions

10-Day Weather Forecast

Almanac

Astronomy

Nov. 26, 2014 Rise Set
Actual Time
Civil Twilight
Nautical Twilight
Astronomical Twilight
Moon
Length of Visible Light
Length of Day
Tomorrow will be .
, % of the Moon is Illuminated

Today's Extremes

State Highs State Lows

Community

WunderPhotos

Upload Photos

1,773,723 photos uploaded!

WunderBlogs® & News

Nearby

Air Quality

  Air Quality AQ Index Pollutant
Not available.

Snow Depth

Station Depth Elevation

Earthquake Activity

City Distance Mag. Time & Date
Minimum magnitude displayed is 2.5.

Coastal Water Temperatures

Place Temperature

Nearby Weather Stations